sensor_id;sensor_type;location;lat;lon;timestamp;P1;durP1;ratioP1;P2;durP2;ratioP2
68293;SDS011;55122;51.660;5.824;2022-07-24T00:03:34;4.6;;;3.0;;
68293;SDS011;55122;51.660;5.824;2022-07-24T00:08:34;6.7;;;3.0;;
68293;SDS011;55122;51.660;5.824;2022-07-24T00:13:34;3.7;;;2.8;;
68293;SDS011;55122;51.660;5.824;2022-07-24T00:18:34;5.2;;;3.1;;
68293;SDS011;55122;51.660;5.824;2022-07-24T00:23:34;5.3;;;3.3;;
68293;SDS011;55122;51.660;5.824;2022-07-24T00:28:34;6.0;;;3.3;;
68293;SDS011;55122;51.660;5.824;2022-07-24T00:33:34;3.8;;;2.7;;
68293;SDS011;55122;51.660;5.824;2022-07-24T00:38:34;5.4;;;3.0;;
68293;SDS011;55122;51.660;5.824;2022-07-24T00:43:34;3.6;;;2.8;;
68293;SDS011;55122;51.660;5.824;2022-07-24T00:48:34;5.2;;;3.3;;
68293;SDS011;55122;51.660;5.824;2022-07-24T00:53:34;3.6;;;2.9;;
68293;SDS011;55122;51.660;5.824;2022-07-24T00:58:34;3.8;;;2.9;;
68293;SDS011;55122;51.660;5.824;2022-07-24T01:03:34;4.2;;;3.2;;
68293;SDS011;55122;51.660;5.824;2022-07-24T01:08:34;4.6;;;3.0;;
68293;SDS011;55122;51.660;5.824;2022-07-24T01:13:34;6.1;;;3.1;;
68293;SDS011;55122;51.660;5.824;2022-07-24T01:18:34;5.8;;;3.2;;
68293;SDS011;55122;51.660;5.824;2022-07-24T01:23:34;4.2;;;3.0;;
68293;SDS011;55122;51.660;5.824;2022-07-24T01:28:34;4.7;;;3.0;;
68293;SDS011;55122;51.660;5.824;2022-07-24T01:33:34;3.7;;;3.0;;
68293;SDS011;55122;51.660;5.824;2022-07-24T01:38:34;4.3;;;3.0;;
68293;SDS011;55122;51.660;5.824;2022-07-24T01:43:34;6.0;;;3.2;;
68293;SDS011;55122;51.660;5.824;2022-07-24T01:48:34;5.0;;;3.7;;
68293;SDS011;55122;51.660;5.824;2022-07-24T01:53:34;5.4;;;3.5;;
68293;SDS011;55122;51.660;5.824;2022-07-24T01:58:34;5.2;;;3.9;;
68293;SDS011;55122;51.660;5.824;2022-07-24T02:03:34;3.9;;;3.5;;
68293;SDS011;55122;51.660;5.824;2022-07-24T02:08:34;5.4;;;3.8;;
68293;SDS011;55122;51.660;5.824;2022-07-24T02:13:34;6.2;;;3.8;;
68293;SDS011;55122;51.660;5.824;2022-07-24T02:18:34;4.5;;;3.6;;
68293;SDS011;55122;51.660;5.824;2022-07-24T02:23:34;5.5;;;3.4;;
68293;SDS011;55122;51.660;5.824;2022-07-24T02:28:34;5.1;;;3.8;;
68293;SDS011;55122;51.660;5.824;2022-07-24T02:33:34;5.9;;;3.9;;
68293;SDS011;55122;51.660;5.824;2022-07-24T02:38:34;5.5;;;4.0;;
68293;SDS011;55122;51.660;5.824;2022-07-24T02:43:34;5.8;;;3.7;;
68293;SDS011;55122;51.660;5.824;2022-07-24T02:48:34;4.7;;;3.5;;
68293;SDS011;55122;51.660;5.824;2022-07-24T02:53:34;5.9;;;3.7;;
68293;SDS011;55122;51.660;5.824;2022-07-24T02:58:34;6.1;;;3.6;;
68293;SDS011;55122;51.660;5.824;2022-07-24T03:03:34;6.5;;;3.9;;
68293;SDS011;55122;51.660;5.824;2022-07-24T03:08:34;4.8;;;3.4;;
68293;SDS011;55122;51.660;5.824;2022-07-24T03:13:34;5.7;;;3.5;;
68293;SDS011;55122;51.660;5.824;2022-07-24T03:18:34;5.4;;;4.0;;
68293;SDS011;55122;51.660;5.824;2022-07-24T03:23:34;4.6;;;3.5;;
68293;SDS011;55122;51.660;5.824;2022-07-24T03:28:35;4.5;;;3.5;;
68293;SDS011;55122;51.660;5.824;2022-07-24T03:33:34;7.0;;;3.8;;
68293;SDS011;55122;51.660;5.824;2022-07-24T03:38:34;5.1;;;3.5;;
68293;SDS011;55122;51.660;5.824;2022-07-24T03:43:34;5.0;;;4.0;;
68293;SDS011;55122;51.660;5.824;2022-07-24T03:48:34;4.8;;;3.7;;
68293;SDS011;55122;51.660;5.824;2022-07-24T03:53:34;4.2;;;3.3;;
68293;SDS011;55122;51.660;5.824;2022-07-24T03:58:34;6.1;;;3.6;;
68293;SDS011;55122;51.660;5.824;2022-07-24T04:03:34;4.9;;;3.3;;
68293;SDS011;55122;51.660;5.824;2022-07-24T04:08:34;5.4;;;3.9;;
68293;SDS011;55122;51.660;5.824;2022-07-24T04:13:34;6.4;;;3.4;;
68293;SDS011;55122;51.660;5.824;2022-07-24T04:18:34;4.8;;;3.7;;
68293;SDS011;55122;51.660;5.824;2022-07-24T04:23:34;4.6;;;3.5;;
68293;SDS011;55122;51.660;5.824;2022-07-24T04:28:34;6.7;;;3.8;;
68293;SDS011;55122;51.660;5.824;2022-07-24T04:33:34;4.2;;;3.5;;
68293;SDS011;55122;51.660;5.824;2022-07-24T04:38:34;5.3;;;3.6;;
68293;SDS011;55122;51.660;5.824;2022-07-24T04:43:34;6.3;;;3.8;;
68293;SDS011;55122;51.660;5.824;2022-07-24T04:48:34;5.3;;;3.8;;
68293;SDS011;55122;51.660;5.824;2022-07-24T04:53:34;5.2;;;3.8;;
68293;SDS011;55122;51.660;5.824;2022-07-24T04:58:34;6.0;;;4.4;;
68293;SDS011;55122;51.660;5.824;2022-07-24T05:03:34;5.4;;;4.3;;
68293;SDS011;55122;51.660;5.824;2022-07-24T05:08:34;5.3;;;3.6;;
68293;SDS011;55122;51.660;5.824;2022-07-24T05:13:34;6.3;;;4.7;;
68293;SDS011;55122;51.660;5.824;2022-07-24T05:18:34;6.4;;;4.7;;
68293;SDS011;55122;51.660;5.824;2022-07-24T05:23:34;5.2;;;4.2;;
68293;SDS011;55122;51.660;5.824;2022-07-24T05:28:34;5.5;;;4.2;;
68293;SDS011;55122;51.660;5.824;2022-07-24T05:33:35;5.6;;;3.9;;
68293;SDS011;55122;51.660;5.824;2022-07-24T05:38:34;5.9;;;4.3;;
68293;SDS011;55122;51.660;5.824;2022-07-24T05:43:34;5.7;;;3.9;;
68293;SDS011;55122;51.660;5.824;2022-07-24T05:48:35;4.4;;;3.8;;
68293;SDS011;55122;51.660;5.824;2022-07-24T05:53:34;5.6;;;3.9;;
68293;SDS011;55122;51.660;5.824;2022-07-24T05:58:35;6.7;;;4.5;;
68293;SDS011;55122;51.660;5.824;2022-07-24T06:03:35;9.0;;;6.1;;
68293;SDS011;55122;51.660;5.824;2022-07-24T06:08:35;9.0;;;5.5;;
68293;SDS011;55122;51.660;5.824;2022-07-24T06:13:34;8.9;;;6.9;;
68293;SDS011;55122;51.660;5.824;2022-07-24T06:18:35;13.5;;;8.0;;
68293;SDS011;55122;51.660;5.824;2022-07-24T06:23:34;11.2;;;8.2;;
68293;SDS011;55122;51.660;5.824;2022-07-24T06:28:34;12.7;;;8.8;;
68293;SDS011;55122;51.660;5.824;2022-07-24T06:33:34;12.8;;;9.0;;
68293;SDS011;55122;51.660;5.824;2022-07-24T06:38:35;12.7;;;9.1;;
68293;SDS011;55122;51.660;5.824;2022-07-24T06:43:35;13.0;;;9.0;;
68293;SDS011;55122;51.660;5.824;2022-07-24T06:48:35;12.2;;;9.2;;
68293;SDS011;55122;51.660;5.824;2022-07-24T06:53:35;12.7;;;8.2;;
68293;SDS011;55122;51.660;5.824;2022-07-24T06:58:35;10.4;;;8.0;;
68293;SDS011;55122;51.660;5.824;2022-07-24T07:03:35;11.1;;;7.8;;
68293;SDS011;55122;51.660;5.824;2022-07-24T07:08:35;11.4;;;8.3;;
68293;SDS011;55122;51.660;5.824;2022-07-24T07:13:35;10.4;;;7.8;;
68293;SDS011;55122;51.660;5.824;2022-07-24T07:18:35;9.7;;;7.1;;
68293;SDS011;55122;51.660;5.824;2022-07-24T07:23:35;10.8;;;7.2;;
68293;SDS011;55122;51.660;5.824;2022-07-24T07:28:35;12.6;;;7.7;;
68293;SDS011;55122;51.660;5.824;2022-07-24T07:33:35;10.9;;;7.6;;
68293;SDS011;55122;51.660;5.824;2022-07-24T07:38:35;11.5;;;7.5;;
68293;SDS011;55122;51.660;5.824;2022-07-24T07:43:35;10.6;;;6.7;;
68293;SDS011;55122;51.660;5.824;2022-07-24T07:48:35;8.8;;;6.6;;
68293;SDS011;55122;51.660;5.824;2022-07-24T07:53:35;12.5;;;7.0;;
68293;SDS011;55122;51.660;5.824;2022-07-24T07:58:35;10.0;;;5.9;;
68293;SDS011;55122;51.660;5.824;2022-07-24T08:03:35;9.7;;;5.7;;
68293;SDS011;55122;51.660;5.824;2022-07-24T08:08:35;9.2;;;5.6;;
68293;SDS011;55122;51.660;5.824;2022-07-24T08:13:35;7.8;;;5.2;;
68293;SDS011;55122;51.660;5.824;2022-07-24T08:18:35;7.7;;;4.7;;
68293;SDS011;55122;51.660;5.824;2022-07-24T08:23:35;6.4;;;4.1;;
68293;SDS011;55122;51.660;5.824;2022-07-24T08:28:35;7.1;;;4.5;;
68293;SDS011;55122;51.660;5.824;2022-07-24T08:33:35;6.7;;;4.1;;
68293;SDS011;55122;51.660;5.824;2022-07-24T08:38:35;5.5;;;3.9;;
68293;SDS011;55122;51.660;5.824;2022-07-24T08:43:35;4.3;;;3.5;;
68293;SDS011;55122;51.660;5.824;2022-07-24T08:48:35;3.8;;;2.8;;
68293;SDS011;55122;51.660;5.824;2022-07-24T08:53:35;5.7;;;3.1;;
68293;SDS011;55122;51.660;5.824;2022-07-24T08:58:35;5.8;;;3.0;;
68293;SDS011;55122;51.660;5.824;2022-07-24T09:03:39;4.2;;;2.8;;
68293;SDS011;55122;51.660;5.824;2022-07-24T09:08:35;5.6;;;2.7;;
68293;SDS011;55122;51.660;5.824;2022-07-24T09:13:35;3.3;;;2.6;;
68293;SDS011;55122;51.660;5.824;2022-07-24T09:18:35;4.3;;;2.5;;
68293;SDS011;55122;51.660;5.824;2022-07-24T09:23:36;3.6;;;2.5;;
68293;SDS011;55122;51.660;5.824;2022-07-24T09:28:46;3.7;;;2.3;;
68293;SDS011;55122;51.660;5.824;2022-07-24T09:33:35;3.0;;;2.0;;
68293;SDS011;55122;51.660;5.824;2022-07-24T09:38:35;4.0;;;1.9;;
68293;SDS011;55122;51.660;5.824;2022-07-24T09:43:35;3.2;;;1.9;;
68293;SDS011;55122;51.660;5.824;2022-07-24T09:48:36;2.7;;;1.6;;
68293;SDS011;55122;51.660;5.824;2022-07-24T09:53:35;3.1;;;1.9;;
68293;SDS011;55122;51.660;5.824;2022-07-24T09:58:36;2.3;;;1.7;;
68293;SDS011;55122;51.660;5.824;2022-07-24T10:03:36;2.5;;;1.8;;
68293;SDS011;55122;51.660;5.824;2022-07-24T10:08:36;4.9;;;1.9;;
68293;SDS011;55122;51.660;5.824;2022-07-24T10:13:35;2.5;;;1.8;;
68293;SDS011;55122;51.660;5.824;2022-07-24T10:18:46;2.3;;;1.6;;
68293;SDS011;55122;51.660;5.824;2022-07-24T10:24:11;2.2;;;1.8;;
68293;SDS011;55122;51.660;5.824;2022-07-24T10:28:40;2.6;;;1.9;;
68293;SDS011;55122;51.660;5.824;2022-07-24T10:33:36;2.5;;;1.9;;
68293;SDS011;55122;51.660;5.824;2022-07-24T10:38:37;2.6;;;2.0;;
68293;SDS011;55122;51.660;5.824;2022-07-24T10:43:35;3.0;;;2.0;;
68293;SDS011;55122;51.660;5.824;2022-07-24T10:48:35;2.3;;;1.7;;
68293;SDS011;55122;51.660;5.824;2022-07-24T10:53:46;3.2;;;1.9;;
68293;SDS011;55122;51.660;5.824;2022-07-24T10:58:50;2.5;;;1.8;;
68293;SDS011;55122;51.660;5.824;2022-07-24T11:03:35;3.0;;;1.9;;
68293;SDS011;55122;51.660;5.824;2022-07-24T11:08:37;3.1;;;1.7;;
68293;SDS011;55122;51.660;5.824;2022-07-24T11:13:47;2.9;;;1.9;;
68293;SDS011;55122;51.660;5.824;2022-07-24T11:18:35;2.1;;;1.8;;
68293;SDS011;55122;51.660;5.824;2022-07-24T11:23:35;3.4;;;1.8;;
68293;SDS011;55122;51.660;5.824;2022-07-24T11:28:35;2.4;;;1.8;;
68293;SDS011;55122;51.660;5.824;2022-07-24T11:33:35;2.3;;;1.8;;
68293;SDS011;55122;51.660;5.824;2022-07-24T11:38:35;3.4;;;1.8;;
68293;SDS011;55122;51.660;5.824;2022-07-24T11:43:35;2.4;;;1.7;;
68293;SDS011;55122;51.660;5.824;2022-07-24T11:48:35;2.1;;;1.8;;
68293;SDS011;55122;51.660;5.824;2022-07-24T11:53:35;4.1;;;2.1;;
68293;SDS011;55122;51.660;5.824;2022-07-24T11:58:37;2.2;;;1.8;;
68293;SDS011;55122;51.660;5.824;2022-07-24T12:03:35;2.1;;;1.7;;
68293;SDS011;55122;51.660;5.824;2022-07-24T12:08:35;2.3;;;2.0;;
68293;SDS011;55122;51.660;5.824;2022-07-24T12:13:35;2.3;;;1.6;;
68293;SDS011;55122;51.660;5.824;2022-07-24T12:18:35;3.2;;;2.0;;
68293;SDS011;55122;51.660;5.824;2022-07-24T12:23:35;2.4;;;1.9;;
68293;SDS011;55122;51.660;5.824;2022-07-24T12:28:35;2.0;;;1.8;;
68293;SDS011;55122;51.660;5.824;2022-07-24T12:33:35;2.8;;;1.8;;
68293;SDS011;55122;51.660;5.824;2022-07-24T12:38:36;3.3;;;1.8;;
68293;SDS011;55122;51.660;5.824;2022-07-24T12:43:45;3.8;;;1.9;;
68293;SDS011;55122;51.660;5.824;2022-07-24T12:48:35;3.3;;;1.9;;
68293;SDS011;55122;51.660;5.824;2022-07-24T12:53:36;2.0;;;1.8;;
68293;SDS011;55122;51.660;5.824;2022-07-24T12:58:56;2.5;;;1.9;;
68293;SDS011;55122;51.660;5.824;2022-07-24T13:03:35;2.4;;;1.9;;
68293;SDS011;55122;51.660;5.824;2022-07-24T13:08:35;3.1;;;2.1;;
68293;SDS011;55122;51.660;5.824;2022-07-24T13:13:35;2.9;;;1.9;;
68293;SDS011;55122;51.660;5.824;2022-07-24T13:18:35;2.8;;;2.1;;
68293;SDS011;55122;51.660;5.824;2022-07-24T13:23:35;4.1;;;1.9;;
68293;SDS011;55122;51.660;5.824;2022-07-24T13:28:35;2.7;;;2.1;;
68293;SDS011;55122;51.660;5.824;2022-07-24T13:33:35;4.0;;;2.3;;
68293;SDS011;55122;51.660;5.824;2022-07-24T13:38:36;2.3;;;2.1;;
68293;SDS011;55122;51.660;5.824;2022-07-24T13:43:35;4.6;;;2.3;;
68293;SDS011;55122;51.660;5.824;2022-07-24T13:48:35;3.1;;;2.3;;
68293;SDS011;55122;51.660;5.824;2022-07-24T13:53:35;5.4;;;2.1;;
68293;SDS011;55122;51.660;5.824;2022-07-24T13:58:36;3.0;;;2.0;;
68293;SDS011;55122;51.660;5.824;2022-07-24T14:03:35;4.2;;;2.0;;
68293;SDS011;55122;51.660;5.824;2022-07-24T14:08:35;4.3;;;2.1;;
68293;SDS011;55122;51.660;5.824;2022-07-24T14:13:36;2.4;;;1.9;;
68293;SDS011;55122;51.660;5.824;2022-07-24T14:18:35;3.7;;;2.2;;
68293;SDS011;55122;51.660;5.824;2022-07-24T14:23:35;3.0;;;1.9;;
68293;SDS011;55122;51.660;5.824;2022-07-24T14:28:35;3.1;;;2.0;;
68293;SDS011;55122;51.660;5.824;2022-07-24T14:33:35;3.2;;;1.9;;
68293;SDS011;55122;51.660;5.824;2022-07-24T14:38:35;4.4;;;2.3;;
68293;SDS011;55122;51.660;5.824;2022-07-24T14:43:35;2.7;;;1.8;;
68293;SDS011;55122;51.660;5.824;2022-07-24T14:48:35;2.7;;;2.0;;
68293;SDS011;55122;51.660;5.824;2022-07-24T14:53:36;2.8;;;2.1;;
68293;SDS011;55122;51.660;5.824;2022-07-24T14:58:36;4.1;;;2.1;;
68293;SDS011;55122;51.660;5.824;2022-07-24T15:03:36;2.1;;;1.6;;
68293;SDS011;55122;51.660;5.824;2022-07-24T15:08:36;2.4;;;2.0;;
68293;SDS011;55122;51.660;5.824;2022-07-24T15:13:36;4.2;;;2.1;;
68293;SDS011;55122;51.660;5.824;2022-07-24T15:18:36;2.7;;;2.0;;
68293;SDS011;55122;51.660;5.824;2022-07-24T15:23:36;2.7;;;2.3;;
68293;SDS011;55122;51.660;5.824;2022-07-24T15:28:36;2.9;;;2.1;;
68293;SDS011;55122;51.660;5.824;2022-07-24T15:33:36;3.9;;;2.1;;
68293;SDS011;55122;51.660;5.824;2022-07-24T15:38:36;2.4;;;2.0;;
68293;SDS011;55122;51.660;5.824;2022-07-24T15:43:36;5.2;;;2.2;;
68293;SDS011;55122;51.660;5.824;2022-07-24T15:48:36;3.5;;;2.2;;
68293;SDS011;55122;51.660;5.824;2022-07-24T15:53:36;3.7;;;2.0;;
68293;SDS011;55122;51.660;5.824;2022-07-24T15:58:36;3.2;;;2.2;;
68293;SDS011;55122;51.660;5.824;2022-07-24T16:03:36;3.7;;;2.1;;
68293;SDS011;55122;51.660;5.824;2022-07-24T16:08:36;3.0;;;2.2;;
68293;SDS011;55122;51.660;5.824;2022-07-24T16:13:36;5.2;;;2.5;;
68293;SDS011;55122;51.660;5.824;2022-07-24T16:18:36;3.5;;;2.5;;
68293;SDS011;55122;51.660;5.824;2022-07-24T16:23:36;4.1;;;2.3;;
68293;SDS011;55122;51.660;5.824;2022-07-24T16:28:36;2.9;;;2.2;;
68293;SDS011;55122;51.660;5.824;2022-07-24T16:33:36;4.1;;;2.2;;
68293;SDS011;55122;51.660;5.824;2022-07-24T16:38:36;2.6;;;2.2;;
68293;SDS011;55122;51.660;5.824;2022-07-24T16:43:36;4.3;;;2.5;;
68293;SDS011;55122;51.660;5.824;2022-07-24T16:48:36;3.0;;;2.1;;
68293;SDS011;55122;51.660;5.824;2022-07-24T16:53:36;2.4;;;2.0;;
68293;SDS011;55122;51.660;5.824;2022-07-24T16:58:37;2.9;;;2.1;;
68293;SDS011;55122;51.660;5.824;2022-07-24T17:03:36;2.7;;;1.9;;
68293;SDS011;55122;51.660;5.824;2022-07-24T17:08:36;2.3;;;1.7;;
68293;SDS011;55122;51.660;5.824;2022-07-24T17:13:36;2.2;;;1.6;;
68293;SDS011;55122;51.660;5.824;2022-07-24T17:18:36;2.6;;;1.7;;
68293;SDS011;55122;51.660;5.824;2022-07-24T17:23:36;2.5;;;1.7;;
68293;SDS011;55122;51.660;5.824;2022-07-24T17:28:36;2.5;;;1.8;;
68293;SDS011;55122;51.660;5.824;2022-07-24T17:33:36;2.3;;;1.6;;
68293;SDS011;55122;51.660;5.824;2022-07-24T17:38:36;2.0;;;1.6;;
68293;SDS011;55122;51.660;5.824;2022-07-24T17:43:36;2.8;;;1.8;;
68293;SDS011;55122;51.660;5.824;2022-07-24T17:48:36;3.3;;;1.6;;
68293;SDS011;55122;51.660;5.824;2022-07-24T17:53:36;4.7;;;1.6;;
68293;SDS011;55122;51.660;5.824;2022-07-24T17:58:36;2.9;;;1.6;;
68293;SDS011;55122;51.660;5.824;2022-07-24T18:03:36;2.2;;;1.7;;
68293;SDS011;55122;51.660;5.824;2022-07-24T18:08:36;2.7;;;1.8;;
68293;SDS011;55122;51.660;5.824;2022-07-24T18:13:36;3.1;;;1.7;;
68293;SDS011;55122;51.660;5.824;2022-07-24T18:18:36;3.3;;;1.7;;
68293;SDS011;55122;51.660;5.824;2022-07-24T18:23:36;2.8;;;1.7;;
68293;SDS011;55122;51.660;5.824;2022-07-24T18:28:36;2.3;;;1.4;;
68293;SDS011;55122;51.660;5.824;2022-07-24T18:33:36;3.2;;;1.7;;
68293;SDS011;55122;51.660;5.824;2022-07-24T18:38:36;2.3;;;1.7;;
68293;SDS011;55122;51.660;5.824;2022-07-24T18:43:36;3.8;;;1.9;;
68293;SDS011;55122;51.660;5.824;2022-07-24T18:48:36;2.2;;;1.7;;
68293;SDS011;55122;51.660;5.824;2022-07-24T18:53:36;3.5;;;1.7;;
68293;SDS011;55122;51.660;5.824;2022-07-24T18:58:36;2.8;;;1.9;;
68293;SDS011;55122;51.660;5.824;2022-07-24T19:03:36;2.0;;;1.6;;
68293;SDS011;55122;51.660;5.824;2022-07-24T19:08:36;4.0;;;1.9;;
68293;SDS011;55122;51.660;5.824;2022-07-24T19:13:36;2.5;;;1.8;;
68293;SDS011;55122;51.660;5.824;2022-07-24T19:18:36;4.5;;;1.9;;
68293;SDS011;55122;51.660;5.824;2022-07-24T19:23:36;3.2;;;1.8;;
68293;SDS011;55122;51.660;5.824;2022-07-24T19:28:36;3.4;;;1.8;;
68293;SDS011;55122;51.660;5.824;2022-07-24T19:33:36;3.2;;;1.9;;
68293;SDS011;55122;51.660;5.824;2022-07-24T19:38:36;5.0;;;2.2;;
68293;SDS011;55122;51.660;5.824;2022-07-24T19:43:36;2.9;;;1.9;;
68293;SDS011;55122;51.660;5.824;2022-07-24T19:48:36;4.4;;;1.9;;
68293;SDS011;55122;51.660;5.824;2022-07-24T19:53:36;3.9;;;2.0;;
68293;SDS011;55122;51.660;5.824;2022-07-24T19:58:36;5.3;;;2.0;;
68293;SDS011;55122;51.660;5.824;2022-07-24T20:03:36;4.3;;;2.3;;
68293;SDS011;55122;51.660;5.824;2022-07-24T20:08:36;4.6;;;2.2;;
68293;SDS011;55122;51.660;5.824;2022-07-24T20:13:36;4.4;;;2.4;;
68293;SDS011;55122;51.660;5.824;2022-07-24T20:18:36;4.9;;;2.1;;
68293;SDS011;55122;51.660;5.824;2022-07-24T20:23:36;6.6;;;2.4;;
68293;SDS011;55122;51.660;5.824;2022-07-24T20:28:36;4.8;;;2.7;;
68293;SDS011;55122;51.660;5.824;2022-07-24T20:33:36;6.8;;;2.9;;
68293;SDS011;55122;51.660;5.824;2022-07-24T20:38:36;5.2;;;2.7;;
68293;SDS011;55122;51.660;5.824;2022-07-24T20:43:36;7.2;;;3.2;;
68293;SDS011;55122;51.660;5.824;2022-07-24T20:48:36;8.7;;;3.6;;
68293;SDS011;55122;51.660;5.824;2022-07-24T20:53:36;5.6;;;3.3;;
68293;SDS011;55122;51.660;5.824;2022-07-24T20:58:36;10.3;;;3.3;;
68293;SDS011;55122;51.660;5.824;2022-07-24T21:03:36;7.0;;;3.8;;
68293;SDS011;55122;51.660;5.824;2022-07-24T21:08:36;7.4;;;3.8;;
68293;SDS011;55122;51.660;5.824;2022-07-24T21:13:36;8.2;;;4.1;;
68293;SDS011;55122;51.660;5.824;2022-07-24T21:18:36;9.0;;;4.1;;
68293;SDS011;55122;51.660;5.824;2022-07-24T21:23:36;6.9;;;3.8;;
68293;SDS011;55122;51.660;5.824;2022-07-24T21:28:36;8.1;;;3.8;;
68293;SDS011;55122;51.660;5.824;2022-07-24T21:33:36;6.9;;;4.0;;
68293;SDS011;55122;51.660;5.824;2022-07-24T21:38:36;7.0;;;4.0;;
68293;SDS011;55122;51.660;5.824;2022-07-24T21:43:36;6.5;;;4.0;;
68293;SDS011;55122;51.660;5.824;2022-07-24T21:48:36;7.4;;;3.8;;
68293;SDS011;55122;51.660;5.824;2022-07-24T21:53:36;5.6;;;3.5;;
68293;SDS011;55122;51.660;5.824;2022-07-24T21:58:36;8.9;;;3.7;;
68293;SDS011;55122;51.660;5.824;2022-07-24T22:03:36;6.6;;;3.5;;
68293;SDS011;55122;51.660;5.824;2022-07-24T22:08:36;6.7;;;3.8;;
68293;SDS011;55122;51.660;5.824;2022-07-24T22:13:36;5.9;;;3.5;;
68293;SDS011;55122;51.660;5.824;2022-07-24T22:18:36;5.5;;;3.8;;
68293;SDS011;55122;51.660;5.824;2022-07-24T22:23:36;5.9;;;3.7;;
68293;SDS011;55122;51.660;5.824;2022-07-24T22:28:36;5.8;;;3.5;;
68293;SDS011;55122;51.660;5.824;2022-07-24T22:33:37;5.8;;;3.4;;
68293;SDS011;55122;51.660;5.824;2022-07-24T22:38:37;6.5;;;4.1;;
68293;SDS011;55122;51.660;5.824;2022-07-24T22:43:36;7.6;;;3.6;;
68293;SDS011;55122;51.660;5.824;2022-07-24T22:48:36;6.8;;;3.8;;
68293;SDS011;55122;51.660;5.824;2022-07-24T22:53:36;5.4;;;4.1;;
68293;SDS011;55122;51.660;5.824;2022-07-24T22:58:36;8.3;;;4.4;;
68293;SDS011;55122;51.660;5.824;2022-07-24T23:03:36;7.1;;;4.1;;
68293;SDS011;55122;51.660;5.824;2022-07-24T23:08:36;6.9;;;4.4;;
68293;SDS011;55122;51.660;5.824;2022-07-24T23:13:37;6.4;;;4.5;;
68293;SDS011;55122;51.660;5.824;2022-07-24T23:18:37;10.8;;;4.7;;
68293;SDS011;55122;51.660;5.824;2022-07-24T23:23:37;8.2;;;4.5;;
68293;SDS011;55122;51.660;5.824;2022-07-24T23:28:37;6.6;;;4.4;;
68293;SDS011;55122;51.660;5.824;2022-07-24T23:33:36;5.0;;;3.8;;
68293;SDS011;55122;51.660;5.824;2022-07-24T23:38:37;6.8;;;4.3;;
68293;SDS011;55122;51.660;5.824;2022-07-24T23:43:37;6.2;;;4.4;;
68293;SDS011;55122;51.660;5.824;2022-07-24T23:48:37;7.4;;;4.9;;
68293;SDS011;55122;51.660;5.824;2022-07-24T23:58:37;7.4;;;4.6;;
